Terminal Aerodrome Forecast
Issued by NWS Wakefield, VA

Home | Current Version | Previous Version | Text Only | Print | Product List | Glossary On
Versions: 1 2 3 4 5 6 7 8 9 10 11 12 13 14 15 16 17 18 19 20 21 22 23 24 25 26 27 28
000
FTUS41 KAKQ 230528
TAFSBY
TAF
KSBY 230528Z 2306/2406 05011KT P6SM VCSH OVC006
     FM231300 07006KT 4SM BR VCSH OVC005
     FM231600 07005KT 4SM BR OVC004
     FM232300 VRB03KT P6SM BKN004
     FM240100 VRB03KT P6SM BKN006
     FM240400 22004KT P6SM BKN010=

USA.gov is the U.S. government's official web portal to all federal, state and local government web resources and services.